createdAt,value
2022-11-15T00:00:53.295Z,3.88
2022-11-15T00:01:53.319Z,3.88
2022-11-15T00:02:53.265Z,3.88
2022-11-15T00:03:53.255Z,3.86
2022-11-15T00:04:53.245Z,3.86
2022-11-15T00:05:53.227Z,3.83
2022-11-15T00:06:53.305Z,3.84
2022-11-15T00:07:56.019Z,3.81
2022-11-15T00:08:53.199Z,3.83
2022-11-15T00:09:53.175Z,3.83
2022-11-15T00:10:53.167Z,3.80
2022-11-15T00:11:53.158Z,3.80
2022-11-15T00:12:53.170Z,3.78
2022-11-15T00:13:53.127Z,3.80
2022-11-15T00:14:53.114Z,3.80
2022-11-15T00:15:53.100Z,3.80
2022-11-15T00:16:53.091Z,3.76
2022-11-15T00:17:53.079Z,3.73
2022-11-15T00:18:53.062Z,3.70
2022-11-15T00:19:53.049Z,3.70
2022-11-15T00:20:53.033Z,3.74
2022-11-15T00:21:53.024Z,3.77
2022-11-15T00:22:53.011Z,3.77
2022-11-15T00:23:52.996Z,3.80
2022-11-15T00:24:52.982Z,3.81
2022-11-15T00:25:52.969Z,3.83
2022-11-15T00:26:52.956Z,3.83
2022-11-15T00:27:52.947Z,3.84
2022-11-15T00:28:52.959Z,3.83
2022-11-15T00:29:52.921Z,3.80
2022-11-15T00:30:52.920Z,3.78
2022-11-15T00:31:52.897Z,3.77
2022-11-15T00:32:52.886Z,3.73
2022-11-15T00:33:52.868Z,3.76
2022-11-15T00:34:52.855Z,3.77
2022-11-15T00:35:52.844Z,3.78
2022-11-15T00:36:52.832Z,3.80
2022-11-15T00:37:52.817Z,3.78
2022-11-15T00:38:52.804Z,3.78
2022-11-15T00:39:52.791Z,3.81
2022-11-15T00:40:52.778Z,3.80
2022-11-15T00:41:52.771Z,3.80
2022-11-15T00:42:52.754Z,3.80
2022-11-15T00:43:52.739Z,3.81
2022-11-15T00:44:52.748Z,3.81
2022-11-15T00:45:52.716Z,3.78
2022-11-15T00:46:52.699Z,3.73
2022-11-15T00:47:52.695Z,3.70
2022-11-15T00:48:52.672Z,3.70
2022-11-15T00:49:52.658Z,3.73
2022-11-15T00:50:52.646Z,3.74
2022-11-15T00:51:52.632Z,3.73
2022-11-15T00:52:52.620Z,3.73
2022-11-15T00:53:52.609Z,3.68
2022-11-15T00:54:52.591Z,3.66
2022-11-15T00:55:52.581Z,3.66
2022-11-15T00:56:52.568Z,3.68
2022-11-15T00:57:52.560Z,3.69
2022-11-15T00:58:52.540Z,3.70
2022-11-15T00:59:52.526Z,3.70
2022-11-15T01:00:52.633Z,3.73
2022-11-15T01:01:52.501Z,3.70
2022-11-15T01:02:52.493Z,3.70
2022-11-15T01:03:52.475Z,3.68
2022-11-15T01:04:52.460Z,3.65
2022-11-15T01:05:52.448Z,3.59
2022-11-15T01:06:52.538Z,3.56
2022-11-15T01:07:52.421Z,3.56
2022-11-15T01:08:52.409Z,3.56
2022-11-15T01:09:52.395Z,3.56
2022-11-15T01:10:52.384Z,3.51
2022-11-15T01:11:52.370Z,3.47
2022-11-15T01:12:52.364Z,3.42
2022-11-15T01:13:52.351Z,3.40
2022-11-15T01:14:52.332Z,3.36
2022-11-15T01:15:52.313Z,3.32
2022-11-15T01:16:52.327Z,3.32
2022-11-15T01:17:52.290Z,3.32
2022-11-15T01:18:52.275Z,3.36
2022-11-15T01:19:52.263Z,3.37
2022-11-15T01:20:52.250Z,3.40
2022-11-15T01:21:52.239Z,3.41
2022-11-15T01:22:52.227Z,3.37
2022-11-15T01:23:52.213Z,3.32
2022-11-15T01:24:52.201Z,3.31
2022-11-15T01:25:52.188Z,3.31
2022-11-15T01:26:52.168Z,3.31
2022-11-15T01:27:52.157Z,3.31
2022-11-15T01:28:52.143Z,3.29
2022-11-15T01:29:52.133Z,3.29
2022-11-15T01:30:52.118Z,3.28
2022-11-15T01:31:52.103Z,3.26
2022-11-15T01:32:52.113Z,3.28
2022-11-15T01:33:52.077Z,3.32
2022-11-15T01:34:52.067Z,3.32
2022-11-15T01:35:52.054Z,3.31
2022-11-15T01:36:52.037Z,3.31
2022-11-15T01:37:52.025Z,3.32
2022-11-15T01:38:52.008Z,3.26
2022-11-15T01:39:51.996Z,3.26
2022-11-15T01:40:51.994Z,3.23
2022-11-15T01:41:51.970Z,3.22
2022-11-15T01:42:51.957Z,3.21
2022-11-15T01:43:51.944Z,3.26
2022-11-15T01:44:51.931Z,3.29
2022-11-15T01:45:51.920Z,3.32
2022-11-15T01:46:51.905Z,3.36
2022-11-15T01:47:51.889Z,3.37
2022-11-15T01:48:51.912Z,3.34
2022-11-15T01:49:51.891Z,3.36
2022-11-15T01:50:51.848Z,3.36
2022-11-15T01:51:51.841Z,3.37
2022-11-15T01:52:51.825Z,3.40
2022-11-15T01:53:51.814Z,3.37
2022-11-15T01:54:51.794Z,3.34
2022-11-15T01:55:51.787Z,3.34
2022-11-15T01:56:51.773Z,3.32
2022-11-15T01:57:51.761Z,3.26
2022-11-15T01:58:51.745Z,3.28
2022-11-15T01:59:51.731Z,3.28
2022-11-15T02:00:51.780Z,3.28
2022-11-15T02:01:51.704Z,3.32
2022-11-15T02:02:51.691Z,3.32
2022-11-15T02:03:51.680Z,3.32
2022-11-15T02:04:51.686Z,3.29
2022-11-15T02:05:51.650Z,3.29
2022-11-15T02:06:51.750Z,3.26
2022-11-15T02:07:51.623Z,3.26
2022-11-15T02:08:51.614Z,3.25
2022-11-15T02:09:51.594Z,3.28
2022-11-15T02:10:51.586Z,3.31
2022-11-15T02:11:51.567Z,3.31
2022-11-15T02:12:51.555Z,3.32
2022-11-15T02:13:51.546Z,3.31
2022-11-15T02:14:51.533Z,3.32
2022-11-15T02:15:51.516Z,3.31
2022-11-15T02:16:51.504Z,3.32
2022-11-15T02:17:51.495Z,3.34
2022-11-15T02:18:51.483Z,3.31
2022-11-15T02:19:51.463Z,3.31
2022-11-15T02:20:51.472Z,3.29
2022-11-15T02:21:51.444Z,3.29
2022-11-15T02:22:51.427Z,3.29
2022-11-15T02:23:51.410Z,3.31
2022-11-15T02:24:51.399Z,3.32
2022-11-15T02:25:51.385Z,3.40
2022-11-15T02:26:51.371Z,3.42
2022-11-15T02:27:51.357Z,3.41
2022-11-15T02:28:51.344Z,3.36
2022-11-15T02:29:51.333Z,3.32
2022-11-15T02:30:51.327Z,3.32
2022-11-15T02:31:51.302Z,3.36
2022-11-15T02:32:51.289Z,3.40
2022-11-15T02:33:51.281Z,3.40
2022-11-15T02:34:51.267Z,3.42
2022-11-15T02:35:51.255Z,3.42
2022-11-15T02:36:51.272Z,3.42
2022-11-15T02:37:51.223Z,3.42
2022-11-15T02:38:51.210Z,3.48
2022-11-15T02:39:51.207Z,3.45
2022-11-15T02:40:51.185Z,3.50
2022-11-15T02:41:51.185Z,3.50
2022-11-15T02:42:51.159Z,3.50
2022-11-15T02:43:51.146Z,3.51
2022-11-15T02:44:51.132Z,3.51
2022-11-15T02:45:51.117Z,3.53
2022-11-15T02:46:51.108Z,3.53
2022-11-15T02:47:51.092Z,3.55
2022-11-15T02:48:51.078Z,3.58
2022-11-15T02:49:51.095Z,3.56
2022-11-15T02:50:51.052Z,3.59
2022-11-15T02:51:51.039Z,3.58
2022-11-15T02:52:51.055Z,3.58
2022-11-15T02:53:51.009Z,3.56
2022-11-15T02:54:50.997Z,3.56
2022-11-15T02:55:50.987Z,3.58
2022-11-15T02:56:50.970Z,3.59
2022-11-15T02:57:50.959Z,3.59
2022-11-15T02:58:50.943Z,3.62
2022-11-15T02:59:50.929Z,3.63
2022-11-15T03:00:50.972Z,3.65
2022-11-15T03:01:50.905Z,3.66
2022-11-15T03:02:50.892Z,3.68
2022-11-15T03:03:50.878Z,3.68
2022-11-15T03:04:50.861Z,3.68
2022-11-15T03:05:50.852Z,3.63
2022-11-15T03:06:50.920Z,3.60
2022-11-15T03:07:50.823Z,3.62
2022-11-15T03:08:50.831Z,3.63
2022-11-15T03:09:50.797Z,3.66
2022-11-15T03:10:50.781Z,3.68
2022-11-15T03:11:50.774Z,3.70
2022-11-15T03:12:50.758Z,3.74
2022-11-15T03:13:50.746Z,3.76
2022-11-15T03:14:50.731Z,3.78
2022-11-15T03:15:50.720Z,3.80
2022-11-15T03:16:50.700Z,3.77
2022-11-15T03:17:50.690Z,3.77
2022-11-15T03:18:50.675Z,3.78
2022-11-15T03:19:50.665Z,3.80
2022-11-15T03:20:50.653Z,3.77
2022-11-15T03:21:50.636Z,3.76
2022-11-15T03:22:50.626Z,3.74
2022-11-15T03:23:50.608Z,3.76
2022-11-15T03:24:50.621Z,3.70
2022-11-15T03:25:50.582Z,3.69
2022-11-15T03:26:50.573Z,3.73
2022-11-15T03:27:50.553Z,3.74
2022-11-15T03:28:50.544Z,3.76
2022-11-15T03:29:50.531Z,3.77
2022-11-15T03:30:50.513Z,3.77
2022-11-15T03:31:51.534Z,3.81
2022-11-15T03:32:50.485Z,3.83
2022-11-15T03:33:50.479Z,3.83
2022-11-15T03:34:50.464Z,3.86
2022-11-15T03:35:50.449Z,3.86
2022-11-15T03:36:50.439Z,3.86
2022-11-15T03:37:50.473Z,3.84
2022-11-15T03:38:50.408Z,3.86
2022-11-15T03:39:50.393Z,3.86
2022-11-15T03:40:50.406Z,3.86
2022-11-15T03:41:50.366Z,3.91
2022-11-15T03:42:50.352Z,3.87
2022-11-15T03:43:50.343Z,3.87
2022-11-15T03:44:50.335Z,3.84
2022-11-15T03:45:50.313Z,3.84
2022-11-15T03:46:50.299Z,3.84
2022-11-15T03:47:50.287Z,3.84
2022-11-15T03:48:50.274Z,3.86
2022-11-15T03:49:50.259Z,3.91
2022-11-15T03:50:50.252Z,3.92
2022-11-15T03:51:50.237Z,3.92
2022-11-15T03:52:50.223Z,3.92
2022-11-15T03:53:50.208Z,3.92
2022-11-15T03:54:50.193Z,3.91
2022-11-15T03:55:50.178Z,3.91
2022-11-15T03:56:50.191Z,3.92
2022-11-15T03:57:50.152Z,3.91
2022-11-15T03:58:50.139Z,3.87
2022-11-15T03:59:50.126Z,3.84
2022-11-15T04:00:50.219Z,3.80
2022-11-15T04:01:50.099Z,3.78
2022-11-15T04:02:50.086Z,3.78
2022-11-15T04:03:50.074Z,3.84
2022-11-15T04:04:50.060Z,3.83
2022-11-15T04:05:50.048Z,3.83
2022-11-15T04:06:50.120Z,3.83
2022-11-15T04:07:50.023Z,3.81
2022-11-15T04:08:50.004Z,3.81
2022-11-15T04:09:49.996Z,3.83
2022-11-15T04:10:49.980Z,3.83
2022-11-15T04:11:49.971Z,3.87
2022-11-15T04:12:49.983Z,3.87
2022-11-15T04:13:49.941Z,3.84
2022-11-15T04:14:49.921Z,3.81
2022-11-15T04:15:49.912Z,3.78
2022-11-15T04:16:49.898Z,3.78
2022-11-15T04:17:49.890Z,3.81
2022-11-15T04:18:49.874Z,3.81
2022-11-15T04:19:49.860Z,3.80
2022-11-15T04:20:49.846Z,3.81
2022-11-15T04:21:49.834Z,3.83
2022-11-15T04:22:49.823Z,3.81
2022-11-15T04:23:49.808Z,3.80
2022-11-15T04:24:49.809Z,3.81
2022-11-15T04:25:49.782Z,3.81
2022-11-15T04:26:49.770Z,3.83
2022-11-15T04:27:49.758Z,3.84
2022-11-15T04:28:49.775Z,3.87
2022-11-15T04:29:49.733Z,3.88
2022-11-15T04:30:49.723Z,3.88
2022-11-15T04:31:49.704Z,3.94
2022-11-15T04:32:49.693Z,3.95
2022-11-15T04:33:49.681Z,3.92
2022-11-15T04:34:49.667Z,3.94
2022-11-15T04:35:49.651Z,3.94
2022-11-15T04:36:49.648Z,3.98
2022-11-15T04:37:49.741Z,3.96
2022-11-15T04:38:49.613Z,3.95
2022-11-15T04:39:49.600Z,3.96
2022-11-15T04:40:49.594Z,4.01
2022-11-15T04:41:49.578Z,4.01
2022-11-15T04:42:49.565Z,3.98
2022-11-15T04:43:49.551Z,3.99
2022-11-15T04:44:49.565Z,3.99
2022-11-15T04:45:49.526Z,3.99
2022-11-15T04:46:49.519Z,3.96
2022-11-15T04:47:49.501Z,3.92
2022-11-15T04:48:52.070Z,3.92
2022-11-15T04:49:50.506Z,3.92
2022-11-15T04:50:49.464Z,3.96
2022-11-15T04:51:49.451Z,3.95
2022-11-15T04:52:49.436Z,3.98
2022-11-15T04:53:49.423Z,3.98
2022-11-15T04:54:49.407Z,3.95
2022-11-15T04:55:49.394Z,3.94
2022-11-15T04:56:49.384Z,3.87
2022-11-15T04:57:49.373Z,3.83
2022-11-15T04:58:49.359Z,3.84
2022-11-15T04:59:49.359Z,3.83
2022-11-15T05:00:49.440Z,3.81
2022-11-15T05:01:49.339Z,3.83
2022-11-15T05:02:49.305Z,3.83
2022-11-15T05:03:49.293Z,3.81
2022-11-15T05:04:49.275Z,3.80
2022-11-15T05:05:49.260Z,3.81
2022-11-15T05:06:49.280Z,3.78
2022-11-15T05:07:49.238Z,3.78
2022-11-15T05:08:49.222Z,3.80
2022-11-15T05:09:49.217Z,3.80
2022-11-15T05:10:49.200Z,3.77
2022-11-15T05:11:49.184Z,3.77
2022-11-15T05:12:49.174Z,3.74
2022-11-15T05:13:49.159Z,3.76
2022-11-15T05:14:49.149Z,3.74
2022-11-15T05:15:49.136Z,3.73
2022-11-15T05:16:49.127Z,3.73
2022-11-15T05:17:49.126Z,3.74
2022-11-15T05:18:49.093Z,3.76
2022-11-15T05:19:49.086Z,3.77
2022-11-15T05:20:49.069Z,3.78
2022-11-15T05:21:49.058Z,3.80
2022-11-15T05:22:49.047Z,3.81
2022-11-15T05:23:49.032Z,3.81
2022-11-15T05:24:49.015Z,3.84
2022-11-15T05:25:49.013Z,3.84
2022-11-15T05:26:48.994Z,3.84
2022-11-15T05:27:48.983Z,3.84
2022-11-15T05:28:48.971Z,3.84
2022-11-15T05:29:48.958Z,3.86
2022-11-15T05:30:48.945Z,3.84
2022-11-15T05:31:48.936Z,3.86
2022-11-15T05:32:48.916Z,3.86
2022-11-15T05:33:48.923Z,3.87
2022-11-15T05:34:48.887Z,3.87
2022-11-15T05:35:48.874Z,3.86
2022-11-15T05:36:48.865Z,3.86
2022-11-15T05:37:48.852Z,3.86
2022-11-15T05:38:48.835Z,3.88
2022-11-15T05:39:48.828Z,3.92
2022-11-15T05:40:48.808Z,3.94
2022-11-15T05:41:48.794Z,3.91
2022-11-15T05:42:48.782Z,3.87
2022-11-15T05:43:48.772Z,3.84
2022-11-15T05:44:48.760Z,3.84
2022-11-15T05:45:48.744Z,3.83
2022-11-15T05:46:48.730Z,3.84
2022-11-15T05:47:48.724Z,3.84
2022-11-15T05:48:48.707Z,3.86
2022-11-15T05:49:48.720Z,3.87
2022-11-15T05:50:48.689Z,3.84
2022-11-15T05:51:48.668Z,3.87
2022-11-15T05:52:48.652Z,3.86
2022-11-15T05:53:48.649Z,3.86
2022-11-15T05:54:48.625Z,3.86
2022-11-15T05:55:48.613Z,3.88
2022-11-15T05:56:48.606Z,3.88
2022-11-15T05:57:48.592Z,3.88
2022-11-15T05:58:48.579Z,3.88
2022-11-15T05:59:48.562Z,3.91
2022-11-15T06:00:48.549Z,3.95
2022-11-15T06:01:48.590Z,3.98
2022-11-15T06:02:48.525Z,4.02
2022-11-15T06:03:48.508Z,4.01
2022-11-15T06:04:48.498Z,4.02
2022-11-15T06:05:48.508Z,4.05
2022-11-15T06:06:48.521Z,4.06
2022-11-15T06:07:48.462Z,4.08
2022-11-15T06:08:48.442Z,4.08
2022-11-15T06:09:48.434Z,4.10
2022-11-15T06:10:48.423Z,4.10
2022-11-15T06:11:48.405Z,4.12
2022-11-15T06:12:48.388Z,4.10
2022-11-15T06:13:48.380Z,4.10
2022-11-15T06:14:48.363Z,4.10
2022-11-15T06:15:48.351Z,4.12
2022-11-15T06:16:48.339Z,4.08
2022-11-15T06:17:48.325Z,4.05
2022-11-15T06:18:48.324Z,4.05
2022-11-15T06:19:48.301Z,4.06
2022-11-15T06:20:48.286Z,4.08
2022-11-15T06:21:48.299Z,4.13
2022-11-15T06:22:48.260Z,4.14
2022-11-15T06:23:48.249Z,4.16
2022-11-15T06:24:48.240Z,4.14
2022-11-15T06:25:48.258Z,4.13
2022-11-15T06:26:48.209Z,4.10
2022-11-15T06:27:48.199Z,4.06
2022-11-15T06:28:48.183Z,4.06
2022-11-15T06:29:48.175Z,4.08
2022-11-15T06:30:53.093Z,4.12
2022-11-15T06:31:48.149Z,4.13
2022-11-15T06:32:48.129Z,4.16
2022-11-15T06:33:48.118Z,4.17
2022-11-15T06:34:48.105Z,4.19
2022-11-15T06:35:48.089Z,4.22
2022-11-15T06:36:48.080Z,4.22
2022-11-15T06:37:48.086Z,4.24
2022-11-15T06:38:48.053Z,4.26
2022-11-15T06:39:48.040Z,4.28
2022-11-15T06:40:48.081Z,4.30
2022-11-15T06:41:48.016Z,4.32
2022-11-15T06:42:48.002Z,4.35
2022-11-15T06:43:47.990Z,4.34
2022-11-15T06:44:47.975Z,4.32
2022-11-15T06:45:47.965Z,4.35
2022-11-15T06:46:47.947Z,4.38
2022-11-15T06:47:47.942Z,4.41
2022-11-15T06:48:47.928Z,4.42
2022-11-15T06:49:47.911Z,4.41
2022-11-15T06:50:47.904Z,4.42
2022-11-15T06:51:47.895Z,4.45
2022-11-15T06:52:47.875Z,4.45
2022-11-15T06:53:47.886Z,4.45
2022-11-15T06:54:47.852Z,4.50
2022-11-15T06:55:53.439Z,4.48
2022-11-15T06:56:48.854Z,4.52
2022-11-15T06:57:47.820Z,4.52
2022-11-15T06:58:47.799Z,4.52
2022-11-15T06:59:47.786Z,4.53
2022-11-15T07:00:47.781Z,4.53
2022-11-15T07:01:47.845Z,4.55
2022-11-15T07:02:47.750Z,4.56
2022-11-15T07:03:47.730Z,4.59
2022-11-15T07:04:47.724Z,4.60
2022-11-15T07:05:47.706Z,4.62
2022-11-15T07:06:47.740Z,4.62
2022-11-15T07:07:47.686Z,4.63
2022-11-15T07:08:47.670Z,4.66
2022-11-15T07:09:47.698Z,4.71
2022-11-15T07:10:47.650Z,4.71
2022-11-15T07:11:47.627Z,4.75
2022-11-15T07:12:47.622Z,4.78
2022-11-15T07:13:47.605Z,4.84
2022-11-15T07:14:47.590Z,4.86
2022-11-15T07:15:47.571Z,4.87
2022-11-15T07:16:47.567Z,4.92
2022-11-15T07:17:47.560Z,4.96
2022-11-15T07:18:47.544Z,4.97
2022-11-15T07:19:47.523Z,5.00
2022-11-15T07:20:47.515Z,5.00
2022-11-15T07:21:47.496Z,5.02
2022-11-15T07:22:47.487Z,5.04
2022-11-15T07:23:47.476Z,5.07
2022-11-15T07:24:47.464Z,5.12
2022-11-15T07:25:47.486Z,5.15
2022-11-15T07:26:47.435Z,5.18
2022-11-15T07:27:47.415Z,5.25
2022-11-15T07:28:47.411Z,5.21
2022-11-15T07:29:47.398Z,5.20
2022-11-15T07:30:47.374Z,5.25
2022-11-15T07:31:47.365Z,5.28
2022-11-15T07:32:47.347Z,5.32
2022-11-15T07:33:47.343Z,5.33
2022-11-15T07:34:47.325Z,5.32
2022-11-15T07:35:47.327Z,5.33
2022-11-15T07:36:47.299Z,5.36
2022-11-15T07:37:47.286Z,5.39
2022-11-15T07:38:47.276Z,5.43
2022-11-15T07:39:47.273Z,5.46
2022-11-15T07:40:47.256Z,5.46
2022-11-15T07:41:47.264Z,5.51
2022-11-15T07:42:47.224Z,5.51
2022-11-15T07:43:47.239Z,5.56
2022-11-15T07:44:47.196Z,5.61
2022-11-15T07:45:47.194Z,5.64
2022-11-15T07:46:47.180Z,5.66
2022-11-15T07:47:47.160Z,5.71
2022-11-15T07:48:47.144Z,5.73
2022-11-15T07:49:47.134Z,5.76
2022-11-15T07:50:47.117Z,5.83
2022-11-15T07:51:47.108Z,5.90
2022-11-15T07:52:47.107Z,5.94
2022-11-15T07:53:47.078Z,5.99
2022-11-15T07:54:47.070Z,6.07
2022-11-15T07:55:47.055Z,6.42
2022-11-15T07:56:47.042Z,6.70
2022-11-15T07:57:47.043Z,6.75
2022-11-15T07:58:47.018Z,6.70
2022-11-15T07:59:47.001Z,6.64
2022-11-15T08:00:46.987Z,6.59
2022-11-15T08:01:47.156Z,6.54
2022-11-15T08:02:47.187Z,6.49
2022-11-15T08:03:46.944Z,6.48
2022-11-15T08:04:46.928Z,6.48
2022-11-15T08:05:46.926Z,6.51
2022-11-15T08:06:46.946Z,6.56
2022-11-15T08:07:46.901Z,6.63
2022-11-15T08:08:46.876Z,6.69
2022-11-15T08:09:46.871Z,6.74
2022-11-15T08:10:46.857Z,7.02
2022-11-15T08:11:46.845Z,7.18
2022-11-15T08:12:46.910Z,7.23
2022-11-15T08:13:46.839Z,7.28
2022-11-15T08:14:46.800Z,7.23
2022-11-15T08:15:46.780Z,7.23
2022-11-15T08:16:46.771Z,7.21
2022-11-15T08:17:46.760Z,7.20
2022-11-15T08:18:46.735Z,7.14
2022-11-15T08:19:46.728Z,7.07
2022-11-15T08:20:46.719Z,6.95
2022-11-15T08:21:46.706Z,6.87
2022-11-15T08:22:46.687Z,6.84
2022-11-15T08:23:46.683Z,6.75
2022-11-15T08:24:46.665Z,6.72
2022-11-15T08:25:46.653Z,6.69
2022-11-15T08:26:46.670Z,6.67
2022-11-15T08:27:46.625Z,6.67
2022-11-15T08:28:46.609Z,6.69
2022-11-15T08:29:46.646Z,6.66
2022-11-15T08:30:46.615Z,6.63
2022-11-15T08:31:46.572Z,6.62
2022-11-15T08:32:46.571Z,6.63
2022-11-15T08:33:46.550Z,6.63
2022-11-15T08:34:46.544Z,6.63
2022-11-15T08:35:46.516Z,6.64
2022-11-15T08:36:46.504Z,6.64
2022-11-15T08:37:46.489Z,6.64
2022-11-15T08:38:46.477Z,6.66
2022-11-15T08:39:46.465Z,6.67
2022-11-15T08:40:46.452Z,6.70
2022-11-15T08:41:46.438Z,6.74
2022-11-15T08:42:46.423Z,6.78
2022-11-15T08:43:46.408Z,6.79
2022-11-15T08:44:46.403Z,6.74
2022-11-15T08:45:46.406Z,6.78
2022-11-15T08:46:46.375Z,6.81
2022-11-15T08:47:51.136Z,6.87
2022-11-15T08:48:46.350Z,6.89
2022-11-15T08:49:46.329Z,6.96
2022-11-15T08:50:46.316Z,7.00
2022-11-15T08:51:46.318Z,7.06
2022-11-15T08:52:46.283Z,7.13
2022-11-15T08:53:46.275Z,7.21
2022-11-15T08:54:46.266Z,7.33
2022-11-15T08:55:46.256Z,7.47
2022-11-15T08:56:46.234Z,7.58
2022-11-15T08:57:46.231Z,7.77
2022-11-15T08:58:46.214Z,7.90
2022-11-15T08:59:46.197Z,8.00
2022-11-15T09:00:46.188Z,8.12
2022-11-15T09:01:46.301Z,8.24
2022-11-15T09:02:46.164Z,8.36
2022-11-15T09:03:46.144Z,8.64
2022-11-15T09:04:46.134Z,8.70
2022-11-15T09:05:46.114Z,8.78
2022-11-15T09:06:46.168Z,8.82
2022-11-15T09:07:46.088Z,8.91
2022-11-15T09:08:47.834Z,8.97
2022-11-15T09:09:46.071Z,9.00
2022-11-15T09:10:46.053Z,9.02
2022-11-15T09:11:46.044Z,9.06
2022-11-15T09:12:46.026Z,9.29
2022-11-15T09:13:46.009Z,9.36
2022-11-15T09:14:45.995Z,9.32
2022-11-15T09:15:45.993Z,9.28
2022-11-15T09:16:45.970Z,9.25
2022-11-15T09:17:45.977Z,9.22
2022-11-15T09:18:45.944Z,9.14
2022-11-15T09:19:45.931Z,9.10
2022-11-15T09:20:45.919Z,9.06
2022-11-15T09:21:45.899Z,9.03
2022-11-15T09:22:45.892Z,8.95
2022-11-15T09:23:45.871Z,8.94
2022-11-15T09:24:45.895Z,8.99
2022-11-15T09:25:45.851Z,9.02
2022-11-15T09:26:45.838Z,9.04
2022-11-15T09:27:45.834Z,9.13
2022-11-15T09:28:45.804Z,9.16
2022-11-15T09:29:45.798Z,9.21
2022-11-15T09:30:45.800Z,9.28
2022-11-15T09:31:45.766Z,9.34
2022-11-15T09:32:45.759Z,9.41
2022-11-15T09:33:45.788Z,9.44
2022-11-15T09:34:45.729Z,9.44
2022-11-15T09:35:45.714Z,9.48
2022-11-15T09:36:45.716Z,9.50
2022-11-15T09:37:45.691Z,9.65
2022-11-15T09:38:45.688Z,9.79
2022-11-15T09:39:45.666Z,9.89
2022-11-15T09:40:45.646Z,9.99
2022-11-15T09:41:45.640Z,10.09
2022-11-15T09:42:45.631Z,9.98
2022-11-15T09:43:45.615Z,9.94
2022-11-15T09:44:45.598Z,9.92
2022-11-15T09:45:45.585Z,9.97
2022-11-15T09:46:45.572Z,10.01
2022-11-15T09:47:45.560Z,10.04
2022-11-15T09:48:45.547Z,10.09
2022-11-15T09:49:45.562Z,10.15
2022-11-15T09:50:45.527Z,10.22
2022-11-15T09:51:45.506Z,10.37
2022-11-15T09:52:45.498Z,10.61
2022-11-15T09:54:24.143Z,10.57
2022-11-15T09:54:53.409Z,10.57
2022-11-15T09:55:46.505Z,10.61
2022-11-15T09:56:45.441Z,10.63
2022-11-15T09:57:45.436Z,10.63
2022-11-15T09:58:45.414Z,10.63
2022-11-15T09:59:45.401Z,10.59
2022-11-15T10:00:47.647Z,10.53
2022-11-15T10:01:45.451Z,10.53
2022-11-15T10:02:45.362Z,10.42
2022-11-15T10:03:45.345Z,10.38
2022-11-15T10:04:45.334Z,10.37
2022-11-15T10:05:45.349Z,10.38
2022-11-15T10:06:45.426Z,10.40
2022-11-15T10:07:45.294Z,10.42
2022-11-15T10:08:45.282Z,10.40
2022-11-15T10:09:45.266Z,10.41
2022-11-15T10:10:45.251Z,10.41
2022-11-15T10:11:45.245Z,10.41
2022-11-15T10:12:45.229Z,10.37
2022-11-15T10:13:45.215Z,10.31
2022-11-15T10:14:47.211Z,10.28
2022-11-15T10:15:45.198Z,10.22
2022-11-15T10:16:45.178Z,10.19
2022-11-15T10:17:45.164Z,10.16
2022-11-15T10:18:45.150Z,10.16
2022-11-15T10:19:45.138Z,10.17
2022-11-15T10:20:45.127Z,10.16
2022-11-15T10:21:45.133Z,10.15
2022-11-15T10:22:45.104Z,10.15
2022-11-15T10:23:45.091Z,10.16
2022-11-15T10:24:45.077Z,10.17
2022-11-15T10:25:45.060Z,10.17
2022-11-15T10:26:45.051Z,10.13
2022-11-15T10:27:45.040Z,10.13
2022-11-15T10:28:45.027Z,10.12
2022-11-15T10:29:45.012Z,10.13
2022-11-15T10:30:44.996Z,10.12
2022-11-15T10:31:44.986Z,10.13
2022-11-15T10:32:44.977Z,10.15
2022-11-15T10:33:44.966Z,10.17
2022-11-15T10:34:44.951Z,10.16
2022-11-15T10:35:44.935Z,10.16
2022-11-15T10:36:49.095Z,10.17
2022-11-15T10:37:44.931Z,10.19
2022-11-15T10:38:44.901Z,10.20
2022-11-15T10:39:44.886Z,10.26
2022-11-15T10:40:44.872Z,10.26
2022-11-15T10:41:44.859Z,10.30
2022-11-15T10:42:44.852Z,10.33
2022-11-15T10:43:44.832Z,10.33
2022-11-15T10:44:44.825Z,10.35
2022-11-15T10:45:44.805Z,10.37
2022-11-15T10:46:47.635Z,10.37
2022-11-15T10:47:44.781Z,10.41
2022-11-15T10:48:44.767Z,10.42
2022-11-15T10:49:44.759Z,10.44
2022-11-15T10:50:44.741Z,10.44
2022-11-15T10:51:44.736Z,10.44
2022-11-15T10:52:44.721Z,10.42
2022-11-15T10:53:44.729Z,10.44
2022-11-15T10:54:44.703Z,10.44
2022-11-15T10:55:44.684Z,10.46
2022-11-15T10:56:44.664Z,10.44
2022-11-15T10:57:44.653Z,10.42
2022-11-15T10:58:44.639Z,10.41
2022-11-15T10:59:44.640Z,10.40
2022-11-15T11:00:44.625Z,10.41
2022-11-15T11:01:44.644Z,10.44
2022-11-15T11:02:44.592Z,10.46
2022-11-15T11:03:44.590Z,10.48
2022-11-15T11:04:44.570Z,10.49
2022-11-15T11:05:44.554Z,10.49
2022-11-15T11:06:44.540Z,10.49
2022-11-15T11:07:44.527Z,10.49
2022-11-15T11:08:44.516Z,10.48
2022-11-15T11:09:44.524Z,10.49
2022-11-15T11:10:51.428Z,10.49
2022-11-15T11:11:45.507Z,10.51
2022-11-15T11:12:44.464Z,10.51
2022-11-15T11:13:44.447Z,10.54
2022-11-15T11:14:44.437Z,10.56
2022-11-15T11:15:44.430Z,10.54
2022-11-15T11:16:44.414Z,10.53
2022-11-15T11:17:44.394Z,10.54
2022-11-15T11:18:44.384Z,10.56
2022-11-15T11:19:44.374Z,10.56
2022-11-15T11:20:44.360Z,10.57
2022-11-15T11:21:44.352Z,10.60
2022-11-15T11:22:44.344Z,10.59
2022-11-15T11:23:44.323Z,10.61
2022-11-15T11:24:44.309Z,10.61
2022-11-15T11:25:44.319Z,10.63
2022-11-15T11:26:44.285Z,10.63
2022-11-15T11:27:44.271Z,10.68
2022-11-15T11:28:44.260Z,10.71
2022-11-15T11:29:44.249Z,10.72
2022-11-15T11:30:44.236Z,10.72
2022-11-15T11:31:44.224Z,10.72
2022-11-15T11:32:44.212Z,10.76
2022-11-15T11:33:44.197Z,10.81
2022-11-15T11:34:44.181Z,10.81
2022-11-15T11:35:44.167Z,10.79
2022-11-15T11:36:44.156Z,10.78
2022-11-15T11:37:44.141Z,10.79
2022-11-15T11:38:44.136Z,10.82
2022-11-15T11:39:44.117Z,10.78
2022-11-15T11:40:44.108Z,10.78
2022-11-15T11:41:44.152Z,10.79
2022-11-15T11:42:44.085Z,10.82
2022-11-15T11:43:44.068Z,10.82
2022-11-15T11:44:44.057Z,10.82
2022-11-15T11:45:47.347Z,10.81
2022-11-15T11:46:44.025Z,10.84
2022-11-15T11:47:44.013Z,10.78
2022-11-15T11:48:44.004Z,10.74
2022-11-15T11:49:43.987Z,10.75
2022-11-15T11:50:43.977Z,10.72
2022-11-15T11:51:43.962Z,10.72
2022-11-15T11:52:43.945Z,10.69
2022-11-15T11:53:43.945Z,10.67
2022-11-15T11:54:43.923Z,10.68
2022-11-15T11:55:43.908Z,10.67
2022-11-15T11:56:43.900Z,10.67
2022-11-15T11:57:43.914Z,10.67
2022-11-15T11:58:43.872Z,10.67
2022-11-15T11:59:43.862Z,10.64
2022-11-15T12:00:43.845Z,10.63
2022-11-15T12:01:44.055Z,10.61
2022-11-15T12:02:43.942Z,10.61
2022-11-15T12:03:43.809Z,10.61
2022-11-15T12:04:43.793Z,10.61
2022-11-15T12:05:43.801Z,10.60
2022-11-15T12:06:43.765Z,10.60
2022-11-15T12:07:43.760Z,10.60
2022-11-15T12:08:43.745Z,10.59
2022-11-15T12:09:43.736Z,10.56
2022-11-15T12:10:43.718Z,10.53
2022-11-15T12:11:43.702Z,10.56
2022-11-15T12:12:43.695Z,10.48
2022-11-15T12:13:43.700Z,10.51
2022-11-15T12:14:43.672Z,10.49
2022-11-15T12:15:43.656Z,10.48
2022-11-15T12:16:43.647Z,10.46
2022-11-15T12:17:43.633Z,10.49
2022-11-15T12:18:43.614Z,10.48
2022-11-15T12:19:43.618Z,10.53
2022-11-15T12:20:43.591Z,10.53
2022-11-15T12:21:43.578Z,10.54
2022-11-15T12:22:43.564Z,10.59
2022-11-15T12:23:43.554Z,10.61
2022-11-15T12:24:43.534Z,10.61
2022-11-15T12:25:43.523Z,10.67
2022-11-15T12:26:43.513Z,10.64
2022-11-15T12:27:43.500Z,10.67
2022-11-15T12:29:04.560Z,10.64
2022-11-15T12:29:44.551Z,10.68
2022-11-15T12:30:43.459Z,10.68
2022-11-15T12:31:43.453Z,10.71
2022-11-15T12:32:43.436Z,10.71
2022-11-15T12:33:43.421Z,10.71
2022-11-15T12:34:43.412Z,10.69
2022-11-15T12:35:43.411Z,10.67
2022-11-15T12:36:43.386Z,10.67
2022-11-15T12:37:43.378Z,10.63
2022-11-15T12:38:43.364Z,10.61
2022-11-15T12:39:43.343Z,10.60
2022-11-15T12:40:43.332Z,10.60
2022-11-15T12:41:43.316Z,10.61
2022-11-15T12:42:43.305Z,10.60
2022-11-15T12:43:43.291Z,10.61
2022-11-15T12:44:43.284Z,10.61
2022-11-15T12:45:43.293Z,10.61
2022-11-15T12:46:43.255Z,10.63
2022-11-15T12:47:43.240Z,10.64
2022-11-15T12:48:43.222Z,10.67
2022-11-15T12:49:43.216Z,10.69
2022-11-15T12:50:43.203Z,10.69
2022-11-15T12:51:43.188Z,10.72
2022-11-15T12:52:43.172Z,10.75
2022-11-15T12:53:43.177Z,10.78
2022-11-15T12:54:43.156Z,10.78
2022-11-15T12:55:43.150Z,10.79
2022-11-15T12:56:43.131Z,10.82
2022-11-15T12:57:43.112Z,10.84
2022-11-15T12:58:43.111Z,10.87
2022-11-15T12:59:43.091Z,10.89
2022-11-15T13:00:43.131Z,10.92
2022-11-15T13:01:43.133Z,10.93
2022-11-15T13:02:43.050Z,10.92
2022-11-15T13:03:43.039Z,10.94
2022-11-15T13:04:43.020Z,10.97
2022-11-15T13:05:43.005Z,10.96
2022-11-15T13:06:42.996Z,10.94
2022-11-15T13:07:42.994Z,10.96
2022-11-15T13:08:42.967Z,10.97
2022-11-15T13:09:42.954Z,10.99
2022-11-15T13:10:42.951Z,10.99
2022-11-15T13:11:42.931Z,10.99